createdAt,value
2023-04-21T00:00:12.945Z,21.85
2023-04-21T00:01:12.927Z,21.84
2023-04-21T00:02:12.925Z,21.85
2023-04-21T00:03:13.005Z,21.83
2023-04-21T00:04:12.899Z,21.84
2023-04-21T00:05:13.049Z,21.85
2023-04-21T00:06:12.783Z,21.84
2023-04-21T00:07:12.758Z,21.84
2023-04-21T00:08:12.734Z,21.83
2023-04-21T00:09:12.697Z,21.84
2023-04-21T00:10:12.681Z,21.83
2023-04-21T00:11:12.652Z,21.83
2023-04-21T00:12:12.631Z,21.83
2023-04-21T00:13:12.611Z,21.83
2023-04-21T00:14:12.585Z,21.83
2023-04-21T00:15:12.567Z,21.83
2023-04-21T00:16:12.621Z,21.82
2023-04-21T00:17:12.518Z,21.83
2023-04-21T00:18:12.501Z,21.83
2023-04-21T00:19:12.470Z,21.83
2023-04-21T00:20:12.483Z,21.82
2023-04-21T00:21:12.444Z,21.82
2023-04-21T00:22:12.398Z,21.83
2023-04-21T00:23:12.371Z,21.82
2023-04-21T00:24:12.346Z,21.82
2023-04-21T00:25:12.328Z,21.83
2023-04-21T00:26:12.312Z,21.82
2023-04-21T00:27:12.279Z,21.83
2023-04-21T00:28:12.265Z,21.82
2023-04-21T00:29:12.236Z,21.81
2023-04-21T00:30:12.210Z,21.82
2023-04-21T00:31:12.222Z,21.82
2023-04-21T00:32:12.156Z,21.82
2023-04-21T00:33:12.130Z,21.82
2023-04-21T00:34:12.108Z,21.82
2023-04-21T00:35:12.091Z,21.82
2023-04-21T00:36:12.067Z,21.81
2023-04-21T00:37:12.048Z,21.82
2023-04-21T00:38:12.023Z,21.81
2023-04-21T00:39:12.014Z,21.81
2023-04-21T00:40:12.016Z,21.81
2023-04-21T00:41:11.991Z,21.81
2023-04-21T00:42:11.965Z,21.81
2023-04-21T00:43:11.947Z,21.81
2023-04-21T00:44:11.936Z,21.81
2023-04-21T00:45:11.905Z,21.81
2023-04-21T00:46:11.895Z,21.80
2023-04-21T00:47:11.922Z,21.81
2023-04-21T00:48:11.842Z,21.80
2023-04-21T00:49:11.825Z,21.80
2023-04-21T00:50:11.808Z,21.80
2023-04-21T00:51:11.785Z,21.80
2023-04-21T00:52:11.771Z,21.80
2023-04-21T00:53:11.741Z,21.80
2023-04-21T00:54:11.714Z,21.80
2023-04-21T00:55:11.699Z,21.79
2023-04-21T00:56:11.674Z,21.79
2023-04-21T00:57:11.658Z,21.79
2023-04-21T00:58:11.633Z,21.79
2023-04-21T00:59:11.616Z,21.79
2023-04-21T01:00:11.597Z,21.79
2023-04-21T01:01:11.614Z,21.79
2023-04-21T01:02:11.719Z,21.79
2023-04-21T01:03:11.689Z,21.79
2023-04-21T01:04:11.629Z,21.78
2023-04-21T01:05:11.481Z,21.79
2023-04-21T01:06:11.467Z,21.78
2023-04-21T01:07:11.442Z,21.78
2023-04-21T01:08:11.421Z,21.77
2023-04-21T01:09:11.399Z,21.78
2023-04-21T01:10:11.393Z,21.78
2023-04-21T01:11:11.361Z,21.78
2023-04-21T01:12:11.340Z,21.77
2023-04-21T01:13:11.327Z,21.79
2023-04-21T01:14:11.297Z,21.77
2023-04-21T01:15:11.275Z,21.78
2023-04-21T01:16:11.284Z,21.78
2023-04-21T01:17:11.237Z,21.78
2023-04-21T01:18:11.245Z,21.77
2023-04-21T01:19:11.203Z,21.78
2023-04-21T01:20:11.192Z,21.77
2023-04-21T01:21:11.225Z,21.78
2023-04-21T01:22:11.188Z,21.78
2023-04-21T01:23:11.151Z,21.77
2023-04-21T01:24:11.130Z,21.78
2023-04-21T01:25:11.104Z,21.77
2023-04-21T01:26:11.100Z,21.77
2023-04-21T01:27:11.078Z,21.77
2023-04-21T01:28:11.039Z,21.77
2023-04-21T01:29:11.030Z,21.77
2023-04-21T01:30:11.015Z,21.77
2023-04-21T01:31:10.988Z,21.77
2023-04-21T01:32:11.003Z,21.77
2023-04-21T01:33:10.955Z,21.77
2023-04-21T01:34:10.931Z,21.77
2023-04-21T01:35:10.910Z,21.77
2023-04-21T01:36:10.880Z,21.77
2023-04-21T01:37:10.867Z,21.77
2023-04-21T01:38:10.831Z,21.76
2023-04-21T01:39:10.817Z,21.77
2023-04-21T01:40:10.790Z,21.77
2023-04-21T01:41:10.847Z,21.76
2023-04-21T01:42:10.757Z,21.76
2023-04-21T01:43:10.717Z,21.76
2023-04-21T01:44:10.704Z,21.76
2023-04-21T01:45:10.683Z,21.76
2023-04-21T01:46:10.744Z,21.75
2023-04-21T01:47:10.644Z,21.76
2023-04-21T01:48:10.689Z,21.76
2023-04-21T01:49:10.618Z,21.75
2023-04-21T01:50:10.608Z,21.75
2023-04-21T01:51:10.566Z,21.75
2023-04-21T01:52:10.544Z,21.75
2023-04-21T01:53:10.500Z,21.75
2023-04-21T01:54:10.477Z,21.75
2023-04-21T01:55:10.456Z,21.75
2023-04-21T01:56:10.436Z,21.74
2023-04-21T01:57:10.470Z,21.75
2023-04-21T01:58:10.386Z,21.74
2023-04-21T01:59:10.363Z,21.74
2023-04-21T02:00:10.341Z,21.74
2023-04-21T02:01:10.373Z,21.74
2023-04-21T02:02:10.413Z,21.74
2023-04-21T02:03:10.423Z,21.74
2023-04-21T02:04:10.330Z,21.74
2023-04-21T02:05:10.236Z,21.74
2023-04-21T02:06:10.221Z,21.73
2023-04-21T02:07:10.183Z,21.74
2023-04-21T02:08:10.171Z,21.73
2023-04-21T02:09:10.145Z,21.74
2023-04-21T02:10:10.119Z,21.74
2023-04-21T02:11:10.086Z,21.74
2023-04-21T02:12:10.085Z,21.73
2023-04-21T02:13:10.062Z,21.73
2023-04-21T02:14:10.029Z,21.73
2023-04-21T02:15:10.008Z,21.73
2023-04-21T02:16:13.957Z,21.73
2023-04-21T02:17:09.954Z,21.74
2023-04-21T02:18:10.008Z,21.73
2023-04-21T02:19:09.902Z,21.73
2023-04-21T02:20:09.886Z,21.73
2023-04-21T02:21:09.863Z,21.73
2023-04-21T02:22:09.822Z,21.73
2023-04-21T02:23:09.812Z,21.73
2023-04-21T02:24:09.791Z,21.73
2023-04-21T02:25:09.779Z,21.73
2023-04-21T02:26:09.780Z,21.72
2023-04-21T02:27:09.751Z,21.73
2023-04-21T02:28:09.755Z,21.73
2023-04-21T02:29:09.733Z,21.73
2023-04-21T02:30:09.706Z,21.72
2023-04-21T02:31:09.718Z,21.72
2023-04-21T02:33:09.679Z,21.72
2023-04-21T02:34:09.636Z,21.73
2023-04-21T02:35:09.620Z,21.72
2023-04-21T02:36:09.601Z,21.72
2023-04-21T02:37:09.568Z,21.71
2023-04-21T02:38:09.549Z,21.71
2023-04-21T02:39:09.519Z,21.72
2023-04-21T02:40:09.496Z,21.72
2023-04-21T02:41:09.497Z,21.72
2023-04-21T02:42:09.461Z,21.72
2023-04-21T02:43:09.433Z,21.71
2023-04-21T02:44:09.402Z,21.71
2023-04-21T02:45:09.382Z,21.72
2023-04-21T02:46:09.403Z,21.71
2023-04-21T02:47:09.345Z,21.71
2023-04-21T02:48:09.324Z,21.70
2023-04-21T02:49:09.298Z,21.71
2023-04-21T02:50:09.270Z,21.71
2023-04-21T02:51:09.259Z,21.71
2023-04-21T02:52:09.228Z,21.71
2023-04-21T02:53:09.203Z,21.70
2023-04-21T02:54:09.199Z,21.71
2023-04-21T02:55:09.169Z,21.71
2023-04-21T02:56:09.147Z,21.70
2023-04-21T02:57:09.128Z,21.70
2023-04-21T02:58:09.110Z,21.70
2023-04-21T02:59:09.084Z,21.71
2023-04-21T03:00:09.064Z,21.72
2023-04-21T03:01:09.098Z,21.72
2023-04-21T03:02:09.069Z,21.73
2023-04-21T03:03:09.093Z,21.74
2023-04-21T03:04:09.126Z,21.75
2023-04-21T03:05:08.970Z,21.76
2023-04-21T03:06:08.943Z,21.77
2023-04-21T03:07:08.913Z,21.78
2023-04-21T03:08:08.887Z,21.80
2023-04-21T03:09:08.849Z,21.83
2023-04-21T03:10:08.842Z,21.85
2023-04-21T03:11:08.814Z,21.86
2023-04-21T03:12:08.774Z,21.88
2023-04-21T03:13:08.755Z,21.89
2023-04-21T03:14:08.724Z,21.91
2023-04-21T03:15:08.695Z,21.93
2023-04-21T03:16:08.719Z,21.95
2023-04-21T03:17:08.662Z,21.96
2023-04-21T03:18:08.670Z,21.97
2023-04-21T03:19:08.606Z,21.99
2023-04-21T03:20:08.584Z,22.00
2023-04-21T03:21:08.554Z,22.01
2023-04-21T03:22:08.529Z,22.03
2023-04-21T03:23:08.516Z,22.03
2023-04-21T03:24:08.484Z,22.06
2023-04-21T03:25:08.499Z,22.06
2023-04-21T03:26:08.521Z,22.08
2023-04-21T03:27:10.462Z,22.09
2023-04-21T03:28:08.634Z,22.10
2023-04-21T03:29:08.658Z,22.12
2023-04-21T03:30:08.668Z,22.12
2023-04-21T03:31:08.671Z,22.13
2023-04-21T03:32:08.701Z,22.15
2023-04-21T03:33:08.709Z,22.14
2023-04-21T03:34:08.699Z,22.15
2023-04-21T03:35:08.735Z,22.15
2023-04-21T03:36:08.733Z,22.16
2023-04-21T03:37:08.760Z,22.16
2023-04-21T03:38:08.765Z,22.17
2023-04-21T03:39:19.367Z,22.17
2023-04-21T03:40:09.761Z,22.17
2023-04-21T03:41:08.714Z,22.17
2023-04-21T03:42:08.683Z,22.19
2023-04-21T03:43:08.650Z,22.18
2023-04-21T03:44:08.615Z,22.18
2023-04-21T03:45:08.601Z,22.19
2023-04-21T03:46:08.587Z,22.20
2023-04-21T03:47:08.537Z,22.20
2023-04-21T03:48:08.575Z,22.21
2023-04-21T03:49:08.545Z,22.22
2023-04-21T03:50:08.599Z,22.22
2023-04-21T03:51:08.610Z,22.23
2023-04-21T03:52:08.652Z,22.23
2023-04-21T03:53:08.692Z,22.23
2023-04-21T03:54:08.750Z,22.23
2023-04-21T03:55:08.773Z,22.23
2023-04-21T03:56:08.817Z,22.25
2023-04-21T03:57:08.852Z,22.24
2023-04-21T03:58:08.902Z,22.24
2023-04-21T03:59:08.937Z,22.25
2023-04-21T04:00:08.974Z,22.25
2023-04-21T04:01:09.056Z,22.25
2023-04-21T04:02:09.102Z,22.26
2023-04-21T04:03:09.201Z,22.26
2023-04-21T04:04:09.339Z,22.26
2023-04-21T04:05:09.272Z,22.26
2023-04-21T04:06:09.236Z,22.27
2023-04-21T04:07:09.269Z,22.27
2023-04-21T04:08:09.328Z,22.27
2023-04-21T04:09:09.411Z,22.29
2023-04-21T04:10:09.363Z,22.27
2023-04-21T04:11:09.425Z,22.28
2023-04-21T04:12:11.156Z,22.28
2023-04-21T04:13:09.489Z,22.29
2023-04-21T04:14:09.532Z,22.28
2023-04-21T04:15:09.557Z,22.28
2023-04-21T04:16:09.673Z,22.29
2023-04-21T04:17:09.662Z,22.29
2023-04-21T04:18:09.714Z,22.29
2023-04-21T04:19:09.697Z,22.30
2023-04-21T04:20:09.756Z,22.29
2023-04-21T04:21:09.779Z,22.29
2023-04-21T04:22:09.820Z,22.29
2023-04-21T04:23:09.853Z,22.30
2023-04-21T04:24:09.887Z,22.30
2023-04-21T04:25:09.915Z,22.29
2023-04-21T04:26:09.959Z,22.30
2023-04-21T04:27:09.991Z,22.30
2023-04-21T04:28:10.593Z,22.30
2023-04-21T04:29:10.065Z,22.30
2023-04-21T04:30:10.098Z,22.29
2023-04-21T04:31:10.196Z,22.29
2023-04-21T04:32:10.189Z,22.29
2023-04-21T04:33:10.258Z,22.30
2023-04-21T04:34:10.261Z,22.29
2023-04-21T04:35:10.298Z,22.30
2023-04-21T04:36:10.344Z,22.30
2023-04-21T04:37:10.380Z,22.29
2023-04-21T04:38:10.409Z,22.30
2023-04-21T04:39:10.458Z,22.30
2023-04-21T04:40:10.520Z,22.30
2023-04-21T04:41:10.531Z,22.30
2023-04-21T04:42:10.581Z,22.30
2023-04-21T04:43:10.638Z,22.29
2023-04-21T04:44:10.649Z,22.30
2023-04-21T04:45:10.702Z,22.30
2023-04-21T04:46:10.736Z,22.30
2023-04-21T04:47:10.768Z,22.30
2023-04-21T04:48:10.810Z,22.31
2023-04-21T04:49:10.868Z,22.31
2023-04-21T04:50:10.865Z,22.31
2023-04-21T04:51:10.910Z,22.31
2023-04-21T04:52:10.942Z,22.31
2023-04-21T04:53:10.972Z,22.31
2023-04-21T04:54:11.019Z,22.30
2023-04-21T04:55:11.058Z,22.31
2023-04-21T04:56:11.099Z,22.30
2023-04-21T04:57:11.126Z,22.30
2023-04-21T04:58:11.177Z,22.28
2023-04-21T04:59:11.217Z,22.28
2023-04-21T05:00:11.393Z,22.28
2023-04-21T05:01:11.302Z,22.30
2023-04-21T05:02:11.540Z,22.29
2023-04-21T05:03:11.530Z,22.29
2023-04-21T05:04:11.543Z,22.28
2023-04-21T05:05:11.620Z,22.28
2023-04-21T05:06:11.513Z,22.28
2023-04-21T05:07:11.532Z,22.27
2023-04-21T05:08:11.572Z,22.28
2023-04-21T05:09:11.610Z,22.28
2023-04-21T05:10:11.665Z,22.28
2023-04-21T05:11:11.694Z,22.27
2023-04-21T05:12:11.743Z,22.27
2023-04-21T05:13:11.805Z,22.27
2023-04-21T05:14:11.829Z,22.27
2023-04-21T05:15:11.876Z,22.29
2023-04-21T05:16:11.928Z,22.29
2023-04-21T05:17:11.952Z,22.29
2023-04-21T05:18:12.012Z,22.29
2023-04-21T05:19:12.025Z,22.23
2023-04-21T05:20:12.049Z,22.20
2023-04-21T05:21:12.126Z,22.16
2023-04-21T05:22:12.119Z,22.13
2023-04-21T05:23:12.144Z,22.13
2023-04-21T05:24:12.159Z,22.13
2023-04-21T05:25:12.178Z,22.15
2023-04-21T05:26:12.155Z,22.14
2023-04-21T05:27:12.147Z,22.11
2023-04-21T05:28:12.140Z,22.07
2023-04-21T05:29:12.124Z,22.01
2023-04-21T05:30:12.108Z,21.95
2023-04-21T05:31:12.100Z,21.89
2023-04-21T05:32:12.163Z,21.93
2023-04-21T05:33:12.111Z,21.99
2023-04-21T05:34:12.057Z,22.05
2023-04-21T05:35:12.049Z,22.09
2023-04-21T05:36:12.063Z,22.14
2023-04-21T05:37:12.097Z,22.17
2023-04-21T05:38:12.176Z,22.21
2023-04-21T05:39:12.157Z,22.23
2023-04-21T05:40:12.181Z,22.26
2023-04-21T05:41:12.184Z,22.28
2023-04-21T05:42:12.216Z,22.31
2023-04-21T05:43:12.196Z,22.33
2023-04-21T05:44:12.207Z,22.35
2023-04-21T05:45:12.184Z,22.37
2023-04-21T05:46:12.231Z,22.40
2023-04-21T05:47:12.164Z,22.41
2023-04-21T05:48:13.674Z,22.43
2023-04-21T05:49:12.114Z,22.45
2023-04-21T05:50:12.087Z,22.46
2023-04-21T05:51:12.052Z,22.47
2023-04-21T05:52:12.036Z,22.49
2023-04-21T05:53:12.004Z,22.51
2023-04-21T05:54:11.985Z,22.53
2023-04-21T05:55:11.979Z,22.55
2023-04-21T05:56:11.962Z,22.56
2023-04-21T05:57:11.953Z,22.58
2023-04-21T05:58:11.942Z,22.59
2023-04-21T05:59:11.926Z,22.61
2023-04-21T06:00:11.891Z,22.62
2023-04-21T06:01:11.864Z,22.65
2023-04-21T06:02:11.918Z,22.66
2023-04-21T06:03:11.952Z,22.69
2023-04-21T06:04:12.041Z,22.70
2023-04-21T06:05:11.801Z,22.72
2023-04-21T06:06:11.744Z,22.73
2023-04-21T06:07:11.693Z,22.76
2023-04-21T06:08:11.680Z,22.77
2023-04-21T06:09:11.669Z,22.79
2023-04-21T06:10:11.680Z,22.82
2023-04-21T06:11:11.660Z,22.83
2023-04-21T06:12:11.659Z,22.85
2023-04-21T06:13:11.650Z,22.86
2023-04-21T06:14:12.616Z,22.88
2023-04-21T06:15:11.681Z,22.90
2023-04-21T06:16:11.731Z,22.93
2023-04-21T06:17:11.726Z,22.98
2023-04-21T06:18:11.785Z,23.02
2023-04-21T06:19:11.786Z,23.04
2023-04-21T06:20:11.821Z,23.06
2023-04-21T06:21:11.865Z,23.09
2023-04-21T06:22:12.623Z,23.13
2023-04-21T06:23:11.905Z,23.17
2023-04-21T06:24:11.943Z,23.21
2023-04-21T06:25:12.902Z,23.25
2023-04-21T06:26:11.847Z,23.28
2023-04-21T06:27:11.817Z,23.27
2023-04-21T06:28:11.776Z,23.24
2023-04-21T06:29:11.749Z,23.22
2023-04-21T06:30:11.717Z,23.19
2023-04-21T06:31:11.705Z,23.16
2023-04-21T06:32:11.674Z,23.13
2023-04-21T06:33:11.658Z,23.10
2023-04-21T06:34:11.655Z,23.08
2023-04-21T06:35:11.667Z,23.05
2023-04-21T06:36:12.641Z,23.03
2023-04-21T06:37:11.708Z,23.00
2023-04-21T06:38:12.611Z,22.99
2023-04-21T06:39:11.736Z,22.97
2023-04-21T06:40:11.724Z,22.95
2023-04-21T06:41:11.715Z,22.94
2023-04-21T06:42:11.704Z,22.93
2023-04-21T06:43:11.677Z,22.94
2023-04-21T06:44:11.627Z,22.92
2023-04-21T06:45:11.615Z,22.91
2023-04-21T06:46:11.594Z,22.89
2023-04-21T06:47:11.646Z,22.87
2023-04-21T06:48:11.579Z,22.87
2023-04-21T06:49:11.496Z,22.86
2023-04-21T06:50:11.479Z,22.85
2023-04-21T06:51:11.455Z,22.84
2023-04-21T06:52:11.456Z,22.83
2023-04-21T06:53:11.417Z,22.83
2023-04-21T06:54:11.404Z,22.83
2023-04-21T06:55:11.383Z,22.83
2023-04-21T06:56:11.364Z,22.81
2023-04-21T06:57:11.353Z,22.81
2023-04-21T06:58:11.358Z,22.85
2023-04-21T06:59:11.329Z,22.87
2023-04-21T07:00:11.307Z,22.92
2023-04-21T07:01:11.305Z,22.94
2023-04-21T07:02:11.285Z,22.92
2023-04-21T07:03:11.485Z,22.90
2023-04-21T07:04:11.279Z,22.90
2023-04-21T07:05:11.190Z,22.88
2023-04-21T07:06:11.165Z,22.88
2023-04-21T07:07:11.153Z,22.92
2023-04-21T07:08:11.118Z,22.97
2023-04-21T07:09:11.087Z,23.00
2023-04-21T07:10:11.088Z,22.96
2023-04-21T07:11:11.026Z,22.93
2023-04-21T07:12:11.007Z,22.93
2023-04-21T07:13:10.982Z,23.00
2023-04-21T07:14:10.940Z,22.97
2023-04-21T07:15:10.917Z,22.99
2023-04-21T07:16:10.913Z,23.06
2023-04-21T07:17:10.957Z,23.10
2023-04-21T07:18:10.871Z,23.14
2023-04-21T07:19:10.833Z,23.16
2023-04-21T07:20:10.801Z,23.15
2023-04-21T07:21:10.779Z,23.17
2023-04-21T07:22:10.752Z,23.23
2023-04-21T07:23:10.757Z,23.25
2023-04-21T07:24:10.804Z,23.25
2023-04-21T07:25:10.799Z,23.27
2023-04-21T07:26:10.841Z,23.28
2023-04-21T07:27:10.861Z,23.28
2023-04-21T07:28:10.889Z,23.29
2023-04-21T07:29:10.898Z,23.31
2023-04-21T07:30:10.940Z,23.33
2023-04-21T07:31:10.945Z,23.35
2023-04-21T07:32:10.918Z,23.34
2023-04-21T07:33:10.971Z,23.35
2023-04-21T07:34:10.919Z,23.34
2023-04-21T07:35:10.886Z,23.33
2023-04-21T07:36:10.878Z,23.33
2023-04-21T07:37:10.857Z,23.34
2023-04-21T07:38:10.871Z,23.33
2023-04-21T07:39:10.821Z,23.32
2023-04-21T07:40:10.802Z,23.32
2023-04-21T07:41:10.775Z,23.31
2023-04-21T07:42:10.772Z,23.31
2023-04-21T07:43:10.726Z,23.31
2023-04-21T07:44:10.709Z,23.31
2023-04-21T07:45:10.682Z,23.32
2023-04-21T07:46:10.722Z,23.33
2023-04-21T07:47:10.633Z,23.33
2023-04-21T07:48:10.675Z,23.33
2023-04-21T07:49:10.570Z,23.33
2023-04-21T07:50:10.567Z,23.35
2023-04-21T07:51:10.508Z,23.37
2023-04-21T07:52:10.479Z,23.36
2023-04-21T07:53:10.673Z,23.36
2023-04-21T07:54:10.401Z,23.38
2023-04-21T07:55:10.367Z,23.40
2023-04-21T07:56:10.348Z,23.40
2023-04-21T07:57:10.304Z,23.40
2023-04-21T07:58:10.262Z,23.39
2023-04-21T07:59:10.212Z,23.38
2023-04-21T08:00:11.090Z,23.38
2023-04-21T08:01:10.162Z,23.39
2023-04-21T08:02:10.194Z,23.41
2023-04-21T08:03:10.213Z,23.41
2023-04-21T08:04:10.186Z,23.42
2023-04-21T08:05:10.130Z,23.43
2023-04-21T08:06:10.375Z,23.43
2023-04-21T08:07:10.113Z,23.43
2023-04-21T08:08:09.978Z,23.45
2023-04-21T08:09:10.667Z,23.46
2023-04-21T08:10:09.911Z,23.46
2023-04-21T08:11:10.981Z,23.45
2023-04-21T08:12:10.066Z,23.45
2023-04-21T08:13:09.861Z,23.44
2023-04-21T08:14:10.602Z,23.42
2023-04-21T08:15:09.831Z,23.39
2023-04-21T08:16:09.905Z,23.32
2023-04-21T08:17:09.871Z,23.27
2023-04-21T08:18:09.959Z,23.22
2023-04-21T08:19:10.295Z,23.07
2023-04-21T08:20:09.941Z,22.99
2023-04-21T08:21:09.879Z,22.89
2023-04-21T08:22:09.853Z,22.86
2023-04-21T08:23:09.862Z,22.82
2023-04-21T08:24:09.842Z,22.72
2023-04-21T08:25:09.828Z,22.55
2023-04-21T08:26:09.868Z,22.40
2023-04-21T08:27:09.900Z,22.22
2023-04-21T08:28:09.879Z,22.05
2023-04-21T08:29:09.857Z,21.88
2023-04-21T08:30:09.903Z,21.74
2023-04-21T08:31:09.912Z,21.60
2023-04-21T08:32:10.048Z,21.49
2023-04-21T08:33:10.021Z,21.54
2023-04-21T08:34:10.029Z,21.67
2023-04-21T08:35:09.972Z,21.80
2023-04-21T08:36:18.197Z,21.81
2023-04-21T08:37:10.975Z,21.82
2023-04-21T08:38:09.923Z,21.88
2023-04-21T08:39:09.881Z,22.01
2023-04-21T08:40:09.851Z,21.99
2023-04-21T08:41:09.839Z,22.00
2023-04-21T08:42:09.801Z,22.07
2023-04-21T08:43:09.786Z,22.18
2023-04-21T08:44:09.753Z,22.30
2023-04-21T08:45:09.729Z,22.41
2023-04-21T08:46:09.758Z,22.49
2023-04-21T08:47:09.678Z,22.58
2023-04-21T08:48:09.702Z,22.64
2023-04-21T08:49:09.602Z,22.71
2023-04-21T08:50:09.581Z,22.77
2023-04-21T08:51:09.600Z,22.83
2023-04-21T08:52:09.635Z,22.88
2023-04-21T08:53:09.629Z,22.93
2023-04-21T08:54:09.663Z,22.96
2023-04-21T08:55:09.694Z,23.01
2023-04-21T08:56:11.667Z,23.04
2023-04-21T08:57:15.466Z,23.07
2023-04-21T08:58:11.182Z,23.10
2023-04-21T08:59:09.662Z,23.13
2023-04-21T09:00:09.642Z,23.14
2023-04-21T09:01:09.616Z,23.16
2023-04-21T09:02:09.606Z,23.18
2023-04-21T09:03:19.376Z,23.19
2023-04-21T09:04:10.737Z,23.21
2023-04-21T09:05:09.584Z,23.21
2023-04-21T09:06:09.979Z,23.22
2023-04-21T09:07:09.347Z,23.24
2023-04-21T09:08:09.311Z,23.26
2023-04-21T09:09:09.278Z,23.27
2023-04-21T09:10:09.235Z,23.29
2023-04-21T09:11:09.189Z,23.31
2023-04-21T09:12:09.294Z,23.33
2023-04-21T09:13:09.113Z,23.35
2023-04-21T09:14:09.080Z,23.35
2023-04-21T09:15:09.042Z,23.37
2023-04-21T09:16:09.038Z,23.39
2023-04-21T09:17:08.981Z,23.40
2023-04-21T09:18:08.923Z,23.41
2023-04-21T09:19:08.885Z,23.42
2023-04-21T09:20:08.838Z,23.43
2023-04-21T09:21:08.808Z,23.45
2023-04-21T09:22:08.777Z,23.47
2023-04-21T09:23:08.748Z,23.46
2023-04-21T09:24:08.733Z,23.46
2023-04-21T09:25:08.733Z,23.46
2023-04-21T09:26:08.734Z,23.46
2023-04-21T09:27:08.731Z,23.46
2023-04-21T09:28:08.752Z,23.45
2023-04-21T09:29:08.752Z,23.45
2023-04-21T09:30:08.789Z,23.45
2023-04-21T09:31:08.816Z,23.44
2023-04-21T09:32:10.957Z,23.44
2023-04-21T09:33:20.021Z,23.43
2023-04-21T09:34:09.803Z,23.43
2023-04-21T09:35:08.749Z,23.41
2023-04-21T09:36:08.749Z,23.41
2023-04-21T09:37:08.711Z,23.41
2023-04-21T09:38:08.639Z,23.42
2023-04-21T09:40:09.568Z,23.44
2023-04-21T09:41:08.522Z,23.45
2023-04-21T09:42:08.490Z,23.45
2023-04-21T09:43:08.462Z,23.44
2023-04-21T09:44:08.425Z,23.45
2023-04-21T09:45:28.428Z,23.45
2023-04-21T09:46:09.361Z,23.46
2023-04-21T09:47:08.307Z,23.46
2023-04-21T09:48:08.375Z,23.47
2023-04-21T09:49:08.259Z,23.48
2023-04-21T09:50:12.287Z,23.49
2023-04-21T09:52:18.546Z,23.49
2023-04-21T09:53:09.091Z,23.50
2023-04-21T09:54:22.101Z,23.51
2023-04-21T09:55:09.049Z,23.51
2023-04-21T09:56:07.971Z,23.53
2023-04-21T09:57:07.939Z,23.55
2023-04-21T09:58:07.904Z,23.53
2023-04-21T09:59:07.864Z,23.55
2023-04-21T10:00:07.827Z,23.54
2023-04-21T10:01:07.865Z,23.55
2023-04-21T10:02:08.042Z,23.53
2023-04-21T10:03:07.822Z,23.54
2023-04-21T10:04:07.851Z,23.53
2023-04-21T10:05:07.719Z,23.54
2023-04-21T10:06:07.780Z,23.53
2023-04-21T10:07:07.761Z,23.52
2023-04-21T10:08:07.732Z,23.53
2023-04-21T10:09:07.737Z,23.56
2023-04-21T10:10:07.766Z,23.58
2023-04-21T10:11:07.781Z,23.56
2023-04-21T10:12:09.500Z,23.50
2023-04-21T10:13:07.832Z,23.46
2023-04-21T10:14:07.865Z,23.42
2023-04-21T10:15:07.892Z,23.37
2023-04-21T10:16:08.134Z,23.35
2023-04-21T10:17:07.949Z,23.32
2023-04-21T10:18:08.210Z,23.30
2023-04-21T10:19:08.010Z,23.27
2023-04-21T10:20:08.029Z,23.26
2023-04-21T10:21:08.050Z,23.23
2023-04-21T10:22:08.078Z,23.22
2023-04-21T10:23:08.636Z,23.21
2023-04-21T10:24:08.106Z,23.21
2023-04-21T10:25:08.119Z,23.20
2023-04-21T10:26:08.130Z,23.19
2023-04-21T10:27:08.156Z,23.19
2023-04-21T10:28:08.190Z,23.19
2023-04-21T10:29:08.199Z,23.19
2023-04-21T10:30:08.215Z,23.20
2023-04-21T10:31:08.268Z,23.21
2023-04-21T10:32:09.274Z,23.22
2023-04-21T10:33:08.311Z,23.23
2023-04-21T10:34:08.318Z,23.24
2023-04-21T10:35:08.359Z,23.26
2023-04-21T10:36:08.364Z,23.27
2023-04-21T10:37:08.371Z,23.28
2023-04-21T10:38:08.400Z,23.29
2023-04-21T10:39:08.420Z,23.30
2023-04-21T10:40:08.427Z,23.32
2023-04-21T10:41:08.455Z,23.32
2023-04-21T10:42:08.491Z,23.33
2023-04-21T10:43:08.512Z,23.33
2023-04-21T10:44:08.554Z,23.33
2023-04-21T10:45:08.578Z,23.34
2023-04-21T10:46:08.628Z,23.34
2023-04-21T10:47:08.798Z,23.35
2023-04-21T10:48:08.763Z,23.34
2023-04-21T10:49:08.780Z,23.35
2023-04-21T10:50:08.769Z,23.36
2023-04-21T10:51:08.803Z,23.36
2023-04-21T10:52:08.846Z,23.37
2023-04-21T10:53:08.880Z,23.37
2023-04-21T10:54:08.918Z,23.37
2023-04-21T10:55:08.957Z,23.38
2023-04-21T10:56:08.974Z,23.38
2023-04-21T10:57:09.015Z,23.39
2023-04-21T10:58:09.050Z,23.39
2023-04-21T10:59:09.089Z,23.39
2023-04-21T11:00:09.097Z,23.39
2023-04-21T11:01:09.209Z,23.38
2023-04-21T11:02:09.294Z,23.39
2023-04-21T11:03:09.307Z,23.39
2023-04-21T11:04:09.349Z,23.39
2023-04-21T11:05:09.301Z,23.39
2023-04-21T11:06:09.291Z,23.40
2023-04-21T11:07:09.323Z,23.39
2023-04-21T11:08:09.358Z,23.39
2023-04-21T11:09:09.389Z,23.40
2023-04-21T11:10:09.400Z,23.39
2023-04-21T11:11:09.437Z,23.39
2023-04-21T11:12:09.476Z,23.40
2023-04-21T11:13:09.507Z,23.39
2023-04-21T11:14:09.537Z,23.39
2023-04-21T11:15:09.565Z,23.39
2023-04-21T11:16:09.654Z,23.39
2023-04-21T11:17:09.721Z,23.38
2023-04-21T11:18:09.733Z,23.37
2023-04-21T11:19:09.668Z,23.38
2023-04-21T11:20:09.680Z,23.37
2023-04-21T11:21:09.711Z,23.37
2023-04-21T11:22:09.768Z,23.37
2023-04-21T11:23:09.782Z,23.38
2023-04-21T11:24:09.825Z,23.36
2023-04-21T11:25:09.843Z,23.36
2023-04-21T11:26:09.909Z,23.35
2023-04-21T11:27:09.917Z,23.35
2023-04-21T11:28:09.941Z,23.35
2023-04-21T11:29:09.966Z,23.35
2023-04-21T11:30:10.007Z,23.34
2023-04-21T11:31:10.101Z,23.34
2023-04-21T11:32:10.029Z,23.34
2023-04-21T11:33:10.117Z,23.34
2023-04-21T11:34:10.092Z,23.34
2023-04-21T11:35:10.113Z,23.34
2023-04-21T11:36:10.133Z,23.33
2023-04-21T11:37:10.155Z,23.34
2023-04-21T11:38:10.175Z,23.32
2023-04-21T11:39:10.213Z,23.33
2023-04-21T11:40:10.205Z,23.32
2023-04-21T11:41:10.275Z,23.33
2023-04-21T11:42:10.268Z,23.32
2023-04-21T11:43:10.288Z,23.32
2023-04-21T11:44:10.317Z,23.31
2023-04-21T11:45:10.327Z,23.30
2023-04-21T11:46:10.368Z,23.29
2023-04-21T11:47:10.363Z,23.30
2023-04-21T11:48:10.431Z,23.29
2023-04-21T11:49:10.411Z,23.29
2023-04-21T11:50:10.455Z,23.29
2023-04-21T11:51:10.487Z,23.29
2023-04-21T11:52:10.466Z,23.29
2023-04-21T11:53:10.494Z,23.28
2023-04-21T11:54:10.529Z,23.28
2023-04-21T11:55:10.570Z,23.29
2023-04-21T11:56:10.604Z,23.27
2023-04-21T11:57:10.633Z,23.28
2023-04-21T11:58:10.650Z,23.28
2023-04-21T11:59:10.699Z,23.27
2023-04-21T12:00:10.722Z,23.26
2023-04-21T12:01:10.763Z,23.26
2023-04-21T12:02:10.806Z,23.26
2023-04-21T12:03:10.853Z,23.24
2023-04-21T12:04:11.010Z,23.23
2023-04-21T12:05:10.902Z,23.23
2023-04-21T12:06:10.915Z,23.22
2023-04-21T12:07:10.892Z,23.22
2023-04-21T12:08:10.936Z,23.23
2023-04-21T12:09:10.935Z,23.22
2023-04-21T12:10:11.027Z,23.22
2023-04-21T12:11:10.996Z,23.22
2023-04-21T12:12:11.058Z,23.21
2023-04-21T12:13:10.925Z,23.20
2023-04-21T12:14:10.892Z,23.19
2023-04-21T12:15:10.885Z,23.19
2023-04-21T12:16:10.893Z,23.18
2023-04-21T12:17:10.798Z,23.18
2023-04-21T12:18:10.841Z,23.18
2023-04-21T12:19:10.754Z,23.17
2023-04-21T12:20:10.759Z,23.17
2023-04-21T12:21:10.708Z,23.16
2023-04-21T12:22:10.736Z,23.16
2023-04-21T12:23:10.775Z,23.15
2023-04-21T12:24:10.807Z,23.15
2023-04-21T12:25:10.847Z,23.15
2023-04-21T12:26:10.856Z,23.15
2023-04-21T12:27:10.869Z,23.15
2023-04-21T12:28:10.883Z,23.14
2023-04-21T12:29:10.898Z,23.13
2023-04-21T12:30:10.921Z,23.13
2023-04-21T12:31:10.955Z,23.13
2023-04-21T12:32:11.008Z,23.13
2023-04-21T12:33:11.127Z,23.13
2023-04-21T12:34:11.074Z,23.12
2023-04-21T12:35:11.015Z,23.12
2023-04-21T12:36:11.039Z,23.10
2023-04-21T12:37:11.054Z,23.10
2023-04-21T12:38:11.078Z,23.09
2023-04-21T12:39:11.103Z,23.09
2023-04-21T12:40:11.134Z,23.09
2023-04-21T12:41:11.145Z,23.09
2023-04-21T12:42:11.187Z,23.09
2023-04-21T12:43:11.211Z,23.08
2023-04-21T12:44:11.311Z,23.08
2023-04-21T12:45:11.262Z,23.08
2023-04-21T12:46:11.398Z,23.08
2023-04-21T12:47:11.355Z,23.07
2023-04-21T12:48:11.358Z,23.08
2023-04-21T12:49:11.371Z,23.08
2023-04-21T12:50:11.416Z,23.08
2023-04-21T12:51:11.451Z,23.07
2023-04-21T12:52:11.455Z,23.06
2023-04-21T12:53:11.462Z,23.06
2023-04-21T12:54:11.493Z,23.05
2023-04-21T12:55:11.526Z,23.05